SBRFSBJP

Guest
Details From SBRF - Guararapes-Gilberto Freyre
To SBJP - Castro Pinto
Flight Number -
Tags generated
Created
Modified
Stats Distance 60 nm / 111 km
Max Altitude 100 ft / 30 m
Waypoints 3
Social Downloads 0
Likes 0
Share VATSIM

Download

Looking for another format? Having issues loading an existing format? Contact us
Advertisement - Login to hide

Notes

Basic altitude profile: - Ascent Rate: 1000ft/min - Ascent Speed: 230kts - Cruise Altitude: 10000ft - Cruise Speed: 270kts - Descent Rate: 1500ft/min - Descent Speed: 220kts Options: - Use NATs: yes - Use PACOTS: yes - Use low airways: yes - Use high airways: no

Route

SBRF REC SBJP

ID Type Via Altitude (ft/m) Position (lat/lon) Dist (leg/tot) Name
O SBRF APT - 0 / 0 -8.12679 / -34.92300 - / 0 nm Guararapes-Gilberto Freyre
REC VOR - 100 / 30 -8.13659 / -34.92730 0 / 0 nm RECIFE
O SBJP APT - 0 / 0 -7.14852 / -34.95070 59 / 59 nm Castro Pinto

Altitude Profile

Advertisement - Login to hide

SBRF

Details ICAO SBRF (REC)
Name Recife Guararapes Intl
Region Brazil
Timezone America/Recife (UTC-3.0)
Stats Elevation 33 ft / 10 m (AMSL)
Location -8.125470° -34.923500°
Runways 1
Magnetic Variation 22.043° W

METAR

SBRF 221400Z 11008KT 9999 SCT025 30/23 Q1013

Decode

TAF

TAF SBRF 221000Z 2212/2312 13010KT 9999 SCT015 FEW025TCU TX29/2217ZTN24/2309Z BECMG 2219/2221 11006KT 9999 SCT025 BECMG2303/2305 21005KT 8000 SCT018 RMK PAZ

Decode

Departure Runways

ID Width Length Bearing (true/mag) Surface Threshold Overrun Markings Lighting
18 148 ft / 45 m 10,906 ft / 3,324 m 161.89° / 183.93° ASPHALT 978 ft / 298 m 0 ft / 0 m PREC-APP CENTERLINE EDGE THRESHOLD REIL-OMNI
36 148 ft / 45 m 10,906 ft / 3,324 m 341.89° / 3.93° ASPHALT 0 ft / 0 m 528 ft / 161 m PREC-APP CENTERLINE EDGE THRESHOLD REIL-OMNI

SBJP

Details ICAO SBJP (JPA)
Name Joao Pessoa Intl
Region Brazil
Timezone America/Fortaleza (UTC-3.0)
Stats Elevation 217 ft / 66 m (AMSL)
Location -7.148520° -34.950700°
Runways 1
Magnetic Variation 21.714° W

METAR

SBJP 221400Z 12007KT 9999 BKN020 29/24 Q1013

Decode

TAF

TAF SBJP 221000Z 2212/2312 19010KT 8000 SCT020 TX30/2216Z TN24/2307Z BECMG 2214/2216 12008KT BECMG 2218/2220 15008KT SCT025 BECMG2222/2224 19003KT FEW020 BECMG 2308/2310 20005KT SCT020 RMK PAZ

Decode

Destination Runways

ID Width Length Bearing (true/mag) Surface Threshold Overrun Markings Lighting
16 148 ft / 45 m 8,259 ft / 2,517 m 135.50° / 157.22° ASPHALT 0 ft / 0 m 0 ft / 0 m PREC-APP CENTERLINE EDGE THRESHOLD
34 148 ft / 45 m 8,259 ft / 2,517 m 315.50° / 337.21° ASPHALT 0 ft / 0 m 0 ft / 0 m PREC-APP CENTERLINE EDGE THRESHOLD

Popular Alternatives